createdAt,value
2023-04-26T00:02:00.604Z,71.20
2023-04-26T00:04:29.533Z,71.30
2023-04-26T00:06:56.779Z,71.40
2023-04-26T00:09:23.888Z,71.50
2023-04-26T00:11:51.081Z,71.70
2023-04-26T00:14:18.121Z,71.70
2023-04-26T00:16:45.232Z,71.70
2023-04-26T00:19:12.848Z,71.80
2023-04-26T00:21:40.276Z,71.80
2023-04-26T00:24:07.906Z,71.80
2023-04-26T00:26:36.070Z,71.80
2023-04-26T00:29:04.974Z,71.90
2023-04-26T00:31:32.146Z,71.90
2023-04-26T00:33:59.012Z,71.90
2023-04-26T00:36:27.793Z,71.90
2023-04-26T00:38:56.186Z,72.10
2023-04-26T00:41:22.927Z,72.20
2023-04-26T00:43:49.759Z,72.20
2023-04-26T00:46:17.090Z,72.20
2023-04-26T00:48:44.832Z,72.20
2023-04-26T00:51:15.510Z,72.10
2023-04-26T00:53:42.871Z,72.20
2023-04-26T00:56:11.130Z,72.30
2023-04-26T00:58:38.777Z,72.30
2023-04-26T01:01:05.701Z,72.50
2023-04-26T01:03:32.929Z,72.50
2023-04-26T01:05:59.806Z,72.50
2023-04-26T01:08:26.993Z,72.50
2023-04-26T01:10:54.389Z,72.60
2023-04-26T01:13:21.548Z,72.60
2023-04-26T01:15:49.324Z,72.60
2023-04-26T01:18:16.122Z,72.70
2023-04-26T01:20:43.275Z,72.80
2023-04-26T01:23:11.577Z,72.70
2023-04-26T01:25:38.797Z,72.80
2023-04-26T01:28:06.839Z,72.80
2023-04-26T01:30:33.748Z,72.90
2023-04-26T01:33:01.088Z,72.90
2023-04-26T01:35:27.929Z,73.00
2023-04-26T01:37:54.811Z,73.00
2023-04-26T01:40:22.131Z,73.00
2023-04-26T01:42:49.052Z,73.00
2023-04-26T01:45:16.153Z,73.00
2023-04-26T01:47:43.034Z,73.00
2023-04-26T01:50:10.640Z,73.00
2023-04-26T01:52:37.429Z,73.00
2023-04-26T01:55:04.473Z,73.10
2023-04-26T01:57:31.379Z,73.00
2023-04-26T01:59:59.405Z,72.90
2023-04-26T02:02:26.512Z,73.00
2023-04-26T02:04:53.323Z,73.00
2023-04-26T02:07:21.051Z,73.00
2023-04-26T02:09:48.448Z,73.10
2023-04-26T02:12:16.951Z,73.20
2023-04-26T02:14:43.736Z,73.20
2023-04-26T02:17:11.286Z,73.30
2023-04-26T02:19:38.128Z,73.40
2023-04-26T02:22:06.278Z,73.50
2023-04-26T02:24:33.545Z,73.50
2023-04-26T02:27:03.880Z,73.50
2023-04-26T02:29:43.953Z,73.50
2023-04-26T02:32:12.397Z,73.40
2023-04-26T02:34:40.864Z,73.50
2023-04-26T02:37:08.295Z,73.60
2023-04-26T02:39:35.190Z,73.60
2023-04-26T02:42:02.419Z,73.60
2023-04-26T02:44:31.053Z,73.70
2023-04-26T02:46:58.753Z,73.60
2023-04-26T02:49:25.634Z,73.60
2023-04-26T02:51:52.787Z,73.60
2023-04-26T02:54:20.106Z,73.70
2023-04-26T02:56:46.992Z,73.80
2023-04-26T02:59:14.191Z,73.80
2023-04-26T03:01:41.023Z,73.80
2023-04-26T03:04:08.048Z,73.80
2023-04-26T03:06:36.860Z,73.80
2023-04-26T03:09:05.662Z,73.80
2023-04-26T03:11:32.554Z,73.90
2023-04-26T03:14:00.985Z,74.00
2023-04-26T03:16:29.755Z,74.00
2023-04-26T03:18:58.665Z,73.90
2023-04-26T03:21:25.586Z,74.00
2023-04-26T03:23:52.299Z,74.00
2023-04-26T03:26:19.715Z,74.10
2023-04-26T03:28:46.436Z,74.10
2023-04-26T03:31:13.178Z,74.10
2023-04-26T03:33:40.085Z,74.20
2023-04-26T03:36:08.664Z,74.20
2023-04-26T03:38:36.107Z,74.20
2023-04-26T03:41:02.964Z,74.30
2023-04-26T03:43:31.237Z,74.30
2023-04-26T03:45:58.475Z,74.30
2023-04-26T03:48:25.689Z,74.30
2023-04-26T03:50:52.734Z,74.40
2023-04-26T03:53:19.546Z,74.40
2023-04-26T03:55:46.216Z,74.50
2023-04-26T03:58:13.073Z,74.50
2023-04-26T04:00:43.894Z,74.50
2023-04-26T04:03:11.022Z,74.50
2023-04-26T04:05:38.421Z,74.60
2023-04-26T04:08:05.559Z,74.60
2023-04-26T04:10:32.447Z,74.70
2023-04-26T04:12:59.304Z,74.70
2023-04-26T04:15:27.120Z,74.80
2023-04-26T04:17:54.003Z,74.80
2023-04-26T04:20:21.551Z,74.80
2023-04-26T04:22:48.968Z,74.80
2023-04-26T04:25:16.469Z,74.90
2023-04-26T04:27:43.539Z,75.00
2023-04-26T04:30:10.921Z,75.00
2023-04-26T04:32:39.574Z,75.10
2023-04-26T04:35:07.695Z,75.10
2023-04-26T04:37:35.910Z,75.10
2023-04-26T04:40:03.186Z,75.20
2023-04-26T04:42:30.409Z,75.30
2023-04-26T04:44:57.695Z,75.30
2023-04-26T04:47:24.626Z,75.30
2023-04-26T04:49:51.718Z,75.50
2023-04-26T04:52:20.267Z,75.50
2023-04-26T04:54:47.131Z,75.60
2023-04-26T04:57:14.387Z,75.60
2023-04-26T04:59:41.381Z,75.70
2023-04-26T05:02:08.276Z,75.90
2023-04-26T05:04:35.441Z,76.00
2023-04-26T05:07:02.448Z,76.10
2023-04-26T05:09:29.203Z,76.20
2023-04-26T05:11:56.018Z,76.40
2023-04-26T05:14:22.984Z,76.50
2023-04-26T05:16:50.012Z,76.60
2023-04-26T05:19:19.554Z,76.80
2023-04-26T05:21:46.345Z,77.00
2023-04-26T05:24:13.121Z,77.10
2023-04-26T05:26:41.520Z,77.30
2023-04-26T05:29:08.727Z,77.40
2023-04-26T05:31:35.740Z,77.70
2023-04-26T05:34:04.212Z,77.80
2023-04-26T05:36:32.342Z,78.00
2023-04-26T05:38:59.240Z,78.10
2023-04-26T05:41:26.268Z,78.30
2023-04-26T05:43:53.349Z,78.50
2023-04-26T05:46:20.724Z,78.70
2023-04-26T05:48:47.764Z,78.80
2023-04-26T05:51:15.073Z,79.10
2023-04-26T05:53:42.042Z,79.30
2023-04-26T05:56:09.414Z,79.50
2023-04-26T05:58:37.234Z,79.70
2023-04-26T06:01:04.296Z,79.90
2023-04-26T06:03:31.224Z,80.30
2023-04-26T06:05:59.714Z,80.50
2023-04-26T06:08:28.725Z,80.80
2023-04-26T06:10:55.684Z,81.10
2023-04-26T06:13:24.897Z,81.20
2023-04-26T06:15:53.685Z,81.50
2023-04-26T06:18:20.644Z,81.80
2023-04-26T06:20:49.112Z,81.90
2023-04-26T06:23:15.948Z,82.30
2023-04-26T06:25:45.579Z,82.50
2023-04-26T06:28:13.075Z,82.50
2023-04-26T06:30:40.222Z,82.40
2023-04-26T06:33:07.135Z,82.60
2023-04-26T06:35:33.890Z,82.60
2023-04-26T06:38:00.823Z,82.70
2023-04-26T06:40:27.707Z,82.90
2023-04-26T06:42:57.524Z,83.10
2023-04-26T06:45:24.505Z,83.10
2023-04-26T06:47:54.707Z,82.90
2023-04-26T06:50:22.738Z,82.30
2023-04-26T06:52:49.781Z,81.90
2023-04-26T06:55:16.787Z,81.70
2023-04-26T06:57:43.992Z,81.90
2023-04-26T07:00:11.299Z,82.00
2023-04-26T07:02:38.210Z,81.90
2023-04-26T07:05:05.735Z,82.00
2023-04-26T07:07:32.881Z,81.40
2023-04-26T07:09:59.894Z,80.90
2023-04-26T07:12:27.508Z,80.70
2023-04-26T07:14:54.807Z,80.00
2023-04-26T07:17:22.404Z,79.50
2023-04-26T07:19:49.371Z,79.20
2023-04-26T07:22:16.186Z,79.00
2023-04-26T07:24:43.482Z,78.70
2023-04-26T07:27:11.981Z,78.80
2023-04-26T07:29:39.267Z,78.90
2023-04-26T07:32:06.848Z,78.90
2023-04-26T07:34:33.852Z,78.80
2023-04-26T07:37:02.177Z,78.70
2023-04-26T07:39:29.019Z,78.30
2023-04-26T07:41:58.516Z,77.90
2023-04-26T07:44:25.366Z,77.70
2023-04-26T07:46:52.618Z,77.80
2023-04-26T07:49:19.769Z,77.50
2023-04-26T07:51:46.768Z,77.30
2023-04-26T07:54:13.645Z,77.20
2023-04-26T07:56:40.553Z,76.90
2023-04-26T07:59:07.738Z,76.60
2023-04-26T08:01:34.600Z,76.50
2023-04-26T08:04:01.976Z,76.60
2023-04-26T08:06:29.438Z,76.60
2023-04-26T08:08:56.315Z,76.60
2023-04-26T08:11:24.498Z,76.60
2023-04-26T08:13:51.557Z,76.60
2023-04-26T08:16:18.425Z,76.20
2023-04-26T08:18:46.940Z,75.90
2023-04-26T08:21:14.062Z,75.90
2023-04-26T08:23:40.945Z,75.50
2023-04-26T08:26:07.656Z,74.70
2023-04-26T08:28:35.768Z,73.30
2023-04-26T08:31:03.716Z,73.00
2023-04-26T08:33:30.864Z,72.60
2023-04-26T08:36:01.276Z,72.50
2023-04-26T08:38:29.545Z,72.20
2023-04-26T08:40:58.788Z,71.90
2023-04-26T08:43:27.564Z,71.60
2023-04-26T08:45:55.503Z,71.60
2023-04-26T08:48:23.173Z,71.40
2023-04-26T08:50:51.012Z,71.00
2023-04-26T08:53:18.169Z,70.80
2023-04-26T08:55:49.624Z,70.70
2023-04-26T08:58:18.889Z,70.80
2023-04-26T09:00:46.312Z,70.70
2023-04-26T09:03:14.108Z,70.70
2023-04-26T09:05:44.119Z,70.60
2023-04-26T09:08:16.628Z,70.50
2023-04-26T09:10:43.965Z,70.50
2023-04-26T09:13:11.423Z,70.60
2023-04-26T09:15:38.840Z,70.50
2023-04-26T09:18:24.740Z,70.50
2023-04-26T09:21:06.045Z,70.60
2023-04-26T09:23:33.826Z,70.70
2023-04-26T09:26:19.605Z,70.70
2023-04-26T09:28:47.831Z,70.30
2023-04-26T09:31:42.793Z,70.40
2023-04-26T09:34:11.514Z,70.50
2023-04-26T09:36:49.598Z,70.50
2023-04-26T09:39:33.162Z,70.30
2023-04-26T09:42:00.165Z,69.70
2023-04-26T09:44:27.229Z,69.60
2023-04-26T09:47:10.868Z,68.80
2023-04-26T09:49:51.701Z,68.50
2023-04-26T09:52:19.528Z,68.10
2023-04-26T09:54:54.089Z,67.70
2023-04-26T09:57:22.592Z,67.30
2023-04-26T09:59:54.327Z,67.10
2023-04-26T10:02:25.358Z,67.30
2023-04-26T10:04:54.575Z,66.90
2023-04-26T10:07:24.003Z,67.10
2023-04-26T10:09:51.106Z,66.80
2023-04-26T10:12:19.570Z,66.60
2023-04-26T10:14:47.090Z,66.50
2023-04-26T10:17:14.451Z,66.40
2023-04-26T10:19:46.510Z,66.30
2023-04-26T10:22:25.690Z,66.10
2023-04-26T10:24:54.531Z,65.50
2023-04-26T10:27:48.246Z,65.50
2023-04-26T10:30:23.164Z,64.50
2023-04-26T10:32:55.488Z,64.70
2023-04-26T10:35:27.081Z,63.80
2023-04-26T10:38:02.795Z,63.20
2023-04-26T10:40:39.319Z,62.50
2023-04-26T10:43:12.136Z,62.70
2023-04-26T10:45:40.129Z,62.90
2023-04-26T10:48:20.598Z,62.70
2023-04-26T10:51:02.435Z,63.10
2023-04-26T10:53:45.570Z,62.40
2023-04-26T10:56:24.460Z,62.30
2023-04-26T11:01:42.006Z,61.50
2023-04-26T11:04:10.300Z,61.60
2023-04-26T11:06:58.005Z,61.90
2023-04-26T11:09:42.361Z,62.20
2023-04-26T11:12:14.307Z,61.60
2023-04-26T11:14:49.350Z,61.60
2023-04-26T11:17:16.237Z,61.80
2023-04-26T11:19:43.030Z,61.60
2023-04-26T11:22:12.265Z,61.60
2023-04-26T11:24:39.259Z,61.80
2023-04-26T11:27:10.636Z,61.60
2023-04-26T11:29:38.436Z,61.10
2023-04-26T11:32:05.548Z,61.30
2023-04-26T11:34:37.184Z,61.20
2023-04-26T11:37:05.521Z,61.00
2023-04-26T11:39:32.940Z,61.00
2023-04-26T11:42:26.346Z,60.70
2023-04-26T11:44:53.800Z,60.50
2023-04-26T11:47:22.140Z,60.30
2023-04-26T11:49:48.961Z,59.90
2023-04-26T11:52:16.448Z,59.60
2023-04-26T11:54:44.410Z,58.90
2023-04-26T11:57:17.162Z,58.90
2023-04-26T11:59:45.881Z,58.80
2023-04-26T12:02:13.114Z,58.90
2023-04-26T12:04:41.413Z,58.40
2023-04-26T12:07:08.697Z,58.70
2023-04-26T12:09:36.673Z,58.60
2023-04-26T12:12:06.554Z,58.50
2023-04-26T12:14:39.996Z,58.40
2023-04-26T12:17:07.726Z,58.60
2023-04-26T12:19:39.330Z,58.40
2023-04-26T12:22:08.476Z,58.20
2023-04-26T12:24:38.569Z,57.90
2023-04-26T12:27:07.287Z,57.90
2023-04-26T12:29:35.167Z,58.10
2023-04-26T12:32:02.973Z,58.10
2023-04-26T12:34:29.941Z,57.80
2023-04-26T12:36:56.790Z,57.70
2023-04-26T12:39:23.702Z,57.40
2023-04-26T12:41:50.511Z,57.50
2023-04-26T12:44:21.229Z,57.50
2023-04-26T12:46:49.763Z,57.20
2023-04-26T12:49:19.243Z,57.20
2023-04-26T12:51:46.334Z,57.10
2023-04-26T12:54:13.223Z,56.90
2023-04-26T12:56:43.973Z,56.90
2023-04-26T12:59:12.215Z,57.00
2023-04-26T13:01:39.432Z,57.10
2023-04-26T13:04:06.790Z,56.80
2023-04-26T13:06:34.398Z,56.60
2023-04-26T13:09:02.001Z,56.50
2023-04-26T13:11:28.873Z,56.60
2023-04-26T13:13:55.592Z,56.60
2023-04-26T13:16:22.561Z,56.70
2023-04-26T13:18:53.065Z,56.80
2023-04-26T13:21:19.768Z,57.10
2023-04-26T13:23:47.498Z,56.90
2023-04-26T13:26:17.120Z,56.50
2023-04-26T13:28:44.351Z,56.50
2023-04-26T13:31:12.058Z,56.40
2023-04-26T13:33:39.287Z,56.30
2023-04-26T13:36:07.430Z,56.10
2023-04-26T13:38:34.629Z,55.30
2023-04-26T13:41:02.414Z,55.10
2023-04-26T13:43:29.225Z,55.50
2023-04-26T13:45:56.570Z,55.10
2023-04-26T13:48:23.644Z,54.60
2023-04-26T13:50:50.526Z,55.00
2023-04-26T13:53:17.474Z,55.00
2023-04-26T13:55:44.324Z,54.90
2023-04-26T13:58:11.582Z,55.10
2023-04-26T14:00:38.353Z,55.00
2023-04-26T14:03:06.647Z,55.00
2023-04-26T14:05:33.667Z,55.00
2023-04-26T14:08:00.935Z,55.00
2023-04-26T14:10:27.675Z,55.00
2023-04-26T14:12:56.308Z,54.90
2023-04-26T14:15:23.538Z,55.00
2023-04-26T14:17:50.714Z,55.20
2023-04-26T14:20:22.269Z,55.30
2023-04-26T14:22:50.235Z,55.30
2023-04-26T14:25:17.115Z,55.30
2023-04-26T14:27:45.252Z,55.90
2023-04-26T14:30:12.506Z,56.20
2023-04-26T14:32:39.710Z,56.50
2023-04-26T14:35:07.568Z,56.20
2023-04-26T14:37:34.360Z,55.90
2023-04-26T14:40:01.510Z,55.70
2023-04-26T14:42:28.560Z,55.20
2023-04-26T14:44:58.430Z,55.00
2023-04-26T14:47:25.373Z,55.00
2023-04-26T14:49:52.258Z,55.00
2023-04-26T14:52:19.132Z,54.90
2023-04-26T14:54:45.793Z,54.10
2023-04-26T14:57:12.604Z,53.50
2023-04-26T14:59:39.280Z,52.50
2023-04-26T15:02:06.333Z,52.80
2023-04-26T15:04:33.295Z,53.10
2023-04-26T15:07:00.676Z,53.00
2023-04-26T15:09:30.496Z,52.80
2023-04-26T15:11:57.656Z,52.30
2023-04-26T15:14:24.700Z,51.60
2023-04-26T15:16:51.635Z,51.40
2023-04-26T15:19:18.596Z,51.30
2023-04-26T15:21:45.626Z,51.10
2023-04-26T15:24:12.415Z,50.90
2023-04-26T15:26:39.460Z,51.20
2023-04-26T15:29:06.293Z,51.10
2023-04-26T15:31:34.203Z,51.30
2023-04-26T15:34:03.858Z,51.40
2023-04-26T15:36:30.811Z,51.50
2023-04-26T15:38:57.931Z,51.60
2023-04-26T15:41:26.916Z,51.50
2023-04-26T15:43:56.893Z,51.50
2023-04-26T15:46:23.762Z,51.30
2023-04-26T15:48:50.673Z,51.30
2023-04-26T15:51:17.532Z,51.50
2023-04-26T15:53:44.466Z,51.80
2023-04-26T15:56:19.658Z,51.70
2023-04-26T15:58:47.891Z,51.70
2023-04-26T16:01:15.291Z,51.90
2023-04-26T16:03:45.575Z,52.10
2023-04-26T16:06:14.038Z,52.00
2023-04-26T16:08:41.167Z,52.20
2023-04-26T16:11:07.992Z,51.70
2023-04-26T16:13:34.830Z,51.70
2023-04-26T16:16:01.751Z,51.50
2023-04-26T16:18:28.636Z,51.30
2023-04-26T16:21:04.391Z,51.30
2023-04-26T16:23:32.632Z,51.30
2023-04-26T16:26:00.702Z,51.40
2023-04-26T16:28:27.657Z,51.50
2023-04-26T16:30:56.033Z,51.40
2023-04-26T16:33:23.367Z,51.40
2023-04-26T16:35:52.729Z,51.30
2023-04-26T16:38:20.111Z,51.30
2023-04-26T16:40:59.903Z,51.30
2023-04-26T16:43:28.399Z,51.40
2023-04-26T16:46:03.032Z,51.60
2023-04-26T16:48:49.941Z,51.90
2023-04-26T16:51:17.061Z,52.30
2023-04-26T16:53:43.958Z,52.50
2023-04-26T16:56:11.460Z,52.60
2023-04-26T16:58:38.362Z,52.70
2023-04-26T17:01:05.221Z,52.70
2023-04-26T17:03:32.857Z,52.70
2023-04-26T17:06:00.311Z,52.70
2023-04-26T17:08:27.840Z,52.80
2023-04-26T17:10:54.772Z,52.90
2023-04-26T17:13:21.995Z,52.90
2023-04-26T17:15:49.530Z,53.00
2023-04-26T17:18:16.465Z,53.00
2023-04-26T17:20:43.324Z,53.10
2023-04-26T17:23:10.192Z,53.20
2023-04-26T17:25:37.256Z,53.30
2023-04-26T17:28:04.096Z,53.20
2023-04-26T17:30:31.977Z,53.20
2023-04-26T17:32:58.907Z,53.00
2023-04-26T17:35:25.866Z,52.90
2023-04-26T17:37:52.933Z,53.00
2023-04-26T17:40:20.457Z,53.20
2023-04-26T17:42:47.396Z,53.20
2023-04-26T17:45:14.823Z,53.50
2023-04-26T17:47:43.277Z,53.60
2023-04-26T17:50:10.535Z,53.60
2023-04-26T17:52:38.381Z,53.70
2023-04-26T17:55:08.260Z,53.70
2023-04-26T17:57:36.048Z,53.80
2023-04-26T18:00:04.113Z,53.70
2023-04-26T18:02:30.937Z,53.80
2023-04-26T18:04:58.006Z,53.90
2023-04-26T18:07:25.001Z,54.00
2023-04-26T18:09:51.745Z,54.00
2023-04-26T18:12:19.203Z,53.90
2023-04-26T18:14:47.333Z,53.70
2023-04-26T18:17:16.352Z,53.70
2023-04-26T18:19:43.318Z,53.80
2023-04-26T18:22:10.115Z,53.70
2023-04-26T18:24:37.426Z,53.80
2023-04-26T18:27:04.763Z,54.00
2023-04-26T18:29:31.759Z,54.20
2023-04-26T18:31:58.608Z,54.20
2023-04-26T18:34:25.415Z,54.30
2023-04-26T18:36:52.500Z,54.50
2023-04-26T18:39:19.391Z,54.50
2023-04-26T18:41:46.380Z,54.80
2023-04-26T18:44:13.437Z,54.80
2023-04-26T18:46:43.484Z,55.00
2023-04-26T18:49:11.219Z,55.00
2023-04-26T18:51:38.316Z,55.10
2023-04-26T18:54:06.279Z,55.20
2023-04-26T18:56:33.119Z,55.30
2023-04-26T18:59:00.377Z,55.50
2023-04-26T19:01:27.142Z,55.60
2023-04-26T19:03:54.407Z,55.80
2023-04-26T19:06:21.683Z,56.00
2023-04-26T19:08:48.554Z,56.10
2023-04-26T19:11:15.411Z,56.20
2023-04-26T19:13:42.747Z,56.50
2023-04-26T19:16:10.484Z,56.60
2023-04-26T19:18:37.489Z,56.70
2023-04-26T19:21:05.332Z,56.70
2023-04-26T19:23:32.141Z,56.90
2023-04-26T19:26:06.865Z,57.10
2023-04-26T19:28:36.709Z,57.10
2023-04-26T19:31:03.805Z,57.20
2023-04-26T19:33:31.218Z,58.00
2023-04-26T19:35:58.131Z,57.50
2023-04-26T19:38:25.888Z,57.60
2023-04-26T19:40:53.318Z,57.80
2023-04-26T19:43:20.428Z,57.80
2023-04-26T19:45:47.313Z,57.90
2023-04-26T19:48:14.226Z,58.10
2023-04-26T19:50:42.156Z,58.30
2023-04-26T19:53:10.067Z,58.60
2023-04-26T19:55:38.129Z,58.90
2023-04-26T19:58:06.868Z,59.10
2023-04-26T20:00:37.041Z,59.30
2023-04-26T20:03:04.108Z,59.50
2023-04-26T20:05:31.507Z,59.60
2023-04-26T20:07:58.307Z,59.70
2023-04-26T20:10:25.423Z,59.90
2023-04-26T20:12:53.507Z,60.00
2023-04-26T20:15:20.575Z,60.00
2023-04-26T20:17:47.795Z,60.10
2023-04-26T20:20:15.309Z,60.20
2023-04-26T20:22:42.321Z,60.30
2023-04-26T20:25:09.428Z,60.30
2023-04-26T20:27:37.232Z,60.30
2023-04-26T20:30:04.306Z,60.40
2023-04-26T20:32:31.348Z,60.50
2023-04-26T20:34:59.757Z,60.60
2023-04-26T20:37:26.940Z,60.60
2023-04-26T20:39:54.216Z,60.70
2023-04-26T20:42:22.034Z,60.80
2023-04-26T20:44:49.123Z,60.80
2023-04-26T20:47:19.374Z,60.80
2023-04-26T20:49:46.317Z,60.80
2023-04-26T20:52:13.190Z,60.80
2023-04-26T20:54:39.998Z,60.90
2023-04-26T20:57:06.840Z,61.00
2023-04-26T20:59:33.876Z,61.00
2023-04-26T21:02:01.628Z,61.10
2023-04-26T21:04:28.867Z,61.10
2023-04-26T21:06:55.886Z,61.20
2023-04-26T21:09:22.755Z,61.20
2023-04-26T21:11:49.877Z,61.30
2023-04-26T21:14:17.027Z,61.30
2023-04-26T21:16:44.176Z,61.40
2023-04-26T21:19:11.183Z,61.50
2023-04-26T21:21:38.287Z,61.60
2023-04-26T21:24:05.387Z,61.60
2023-04-26T21:26:32.472Z,61.70
2023-04-26T21:28:59.276Z,61.80
2023-04-26T21:31:26.536Z,61.90
2023-04-26T21:33:53.773Z,61.90
2023-04-26T21:36:20.774Z,62.10
2023-04-26T21:38:47.677Z,62.20
2023-04-26T21:41:14.656Z,62.30
2023-04-26T21:43:41.501Z,62.40
2023-04-26T21:46:08.481Z,62.30
2023-04-26T21:48:36.459Z,62.50
2023-04-26T21:51:03.668Z,62.60
2023-04-26T21:53:30.530Z,62.60
2023-04-26T21:55:57.555Z,62.60
2023-04-26T21:58:25.509Z,62.70
2023-04-26T22:00:52.717Z,62.80
2023-04-26T22:03:19.994Z,62.90
2023-04-26T22:05:47.229Z,62.90
2023-04-26T22:08:14.382Z,63.10
2023-04-26T22:10:41.858Z,63.20
2023-04-26T22:13:09.209Z,63.20
2023-04-26T22:15:37.552Z,63.20
2023-04-26T22:18:04.653Z,63.20
2023-04-26T22:20:32.641Z,63.30
2023-04-26T22:22:59.386Z,63.20
2023-04-26T22:25:26.800Z,63.30
2023-04-26T22:27:53.753Z,63.30
2023-04-26T22:30:25.519Z,63.30
2023-04-26T22:32:55.319Z,63.30
2023-04-26T22:35:26.856Z,63.40
2023-04-26T22:37:55.528Z,63.40
2023-04-26T22:40:23.566Z,63.50
2023-04-26T22:42:50.458Z,63.60
2023-04-26T22:45:17.452Z,63.70
2023-04-26T22:47:44.602Z,63.70
2023-04-26T22:50:11.940Z,63.80
2023-04-26T22:52:39.062Z,63.80
2023-04-26T22:55:06.969Z,63.80
2023-04-26T22:57:33.857Z,63.80
2023-04-26T23:00:00.808Z,63.80
2023-04-26T23:02:27.857Z,63.80
2023-04-26T23:04:54.736Z,63.80
2023-04-26T23:07:21.921Z,63.80
2023-04-26T23:09:48.709Z,63.90
2023-04-26T23:12:21.182Z,64.00
2023-04-26T23:14:48.813Z,64.10
2023-04-26T23:17:15.775Z,64.00
2023-04-26T23:19:45.896Z,63.90
2023-04-26T23:22:12.738Z,64.00
2023-04-26T23:24:39.377Z,64.10
2023-04-26T23:27:06.263Z,64.20
2023-04-26T23:29:33.163Z,64.20
2023-04-26T23:31:59.957Z,64.30
2023-04-26T23:34:27.268Z,64.30
2023-04-26T23:36:54.272Z,64.40
2023-04-26T23:39:21.047Z,64.40
2023-04-26T23:41:49.060Z,64.40
2023-04-26T23:44:15.934Z,64.50
2023-04-26T23:46:42.773Z,64.50
2023-04-26T23:49:09.706Z,64.50
2023-04-26T23:51:36.752Z,64.60
2023-04-26T23:54:03.752Z,64.60
2023-04-26T23:56:31.763Z,64.60
2023-04-26T23:58:58.628Z,64.60
